Date,TemperatureHighF,TemperatureAvgF,TemperatureLowF,DewpointHighF,DewpointAvgF,DewpointLowF,HumidityHigh,HumidityAvg,HumidityLow,PressureMaxIn,PressureMinIn,WindSpeedMaxMPH,WindSpeedAvgMPH,GustSpeedMaxMPH,PrecipitationSumIn
2012-1-3,29.1,12.7,1.9,10.9,-0.4,-12.5,67,52,39,29.38,29.03,6,2,12,0.00
2012-1-4,35.7,20.0,3.2,13.5,3.7,-11.4,57,45,36,29.38,29.00,5,2,10,0.00
2012-1-5,35.0,30.7,28.2,23.3,20.5,14.3,73,63,51,29.06,28.94,3,1,6,0.00
2012-1-6,70.6,42.2,27.9,38.1,25.0,20.2,72,52,27,28.97,28.76,3,1,8,0.00
2012-1-7,58.4,43.5,36.0,33.2,27.0,21.8,72,53,35,29.21,28.82,6,2,12,0.00
2012-1-8,37.9,30.6,19.8,23.5,17.4,12.7,76,57,48,29.50,29.18,6,2,9,0.00
2012-1-9,51.0,34.6,19.8,23.6,17.3,12.7,79,51,31,29.47,29.00,4,2,8,0.00
2012-1-10,44.7,38.2,32.9,25.0,21.3,17.3,57,50,43,29.18,28.94,6,1,11,0.00
2012-1-11,56.2,38.7,25.3,33.0,24.5,19.2,86,58,35,29.18,28.88,6,2,12,0.00
2012-1-12,44.6,40.4,36.3,41.3,37.3,32.4,96,89,83,28.88,28.53,4,1,9,0.00
2012-1-13,41.5,29.0,22.6,39.9,24.9,16.6,97,83,71,28.94,28.41,6,0,9,0.00
2012-1-14,26.5,19.0,7.8,18.1,10.5,-1.4,79,66,51,29.32,28.91,0,0,0,0.00
2012-1-15,30.2,11.9,1.1,11.6,-0.2,-10.8,64,55,41,29.68,29.32,3,0,6,0.00
2012-1-16,39.4,23.0,1.8,27.6,7.8,-10.1,76,50,37,29.68,29.06,7,2,15,0.00
2012-1-17,45.2,39.2,34.5,44.3,33.3,21.4,99,80,52,29.12,28.53,8,3,15,0.00
2012-1-18,35.4,24.4,11.1,21.0,10.4,1.4,64,52,40,29.35,28.79,9,3,16,0.00
2012-1-19,29.0,21.4,10.7,19.6,10.4,1.0,75,60,42,29.29,28.94,7,3,12,0.00
2012-1-20,29.7,17.9,6.8,12.2,4.4,-5.4,59,51,43,29.47,29.12,4,1,7,0.00
2012-1-21,44.8,21.1,6.4,21.2,10.6,-2.8,76,62,38,29.53,29.18,4,1,6,0.00
2012-1-22,39.4,24.5,5.5,25.1,12.5,-3.6,80,60,40,29.56,29.32,6,2,13,0.00
2012-1-23,48.2,41.7,34.2,38.6,33.9,25.1,81,74,68,29.35,28.88,6,3,14,0.00
2012-1-24,43.5,37.6,32.9,38.6,26.4,20.5,87,64,56,29.38,28.91,5,2,8,0.00
2012-1-25,33.6,31.9,30.4,22.9,20.6,18.7,70,61,56,29.53,29.35,5,1,9,0.00
2012-1-26,36.9,32.2,25.5,33.1,27.1,22.2,91,81,67,29.38,28.97,3,1,8,0.00
2012-1-27,43.2,37.4,34.9,30.6,27.7,20.8,78,68,56,29.09,28.67,5,3,10,0.00
2012-1-28,46.8,35.5,28.5,26.6,21.2,12.8,73,56,41,29.15,28.88,6,2,14,0.00
2012-1-29,50.9,34.1,25.3,23.4,16.9,12.1,69,49,30,29.21,29.03,6,2,13,0.00
2012-1-30,46.6,29.8,22.3,24.8,16.1,10.1,78,55,33,29.47,29.15,6,2,10,0.00
2012-1-31,68.4,46.2,28.6,36.0,25.5,17.5,61,45,30,29.21,29.03,4,2,7,0.00
2012-2-1,63.0,47.9,37.9,44.6,32.0,25.3,78,55,36,29.29,28.97,9,2,16,0.00
2012-2-2,73.1,35.8,29.8,41.5,23.5,12.2,78,60,28,29.53,29.21,6,-3,10,0.00
2012-2-3,40.3,34.4,29.5,23.4,20.5,16.8,61,55,49,29.62,29.47,5,1,9,0.00
2012-2-4,49.1,35.5,27.0,25.2,21.9,17.6,70,58,38,29.50,29.32,4,1,6,0.00
2012-2-5,45.4,30.8,27.1,23.5,17.6,15.4,71,56,40,29.38,29.29,3,0,4,0.00
2012-2-6,65.3,40.9,26.8,28.6,20.7,13.7,73,47,24,29.32,29.09,4,1,8,0.00
2012-2-7,39.4,34.3,25.8,27.4,23.3,16.5,75,63,50,29.47,29.12,4,2,7,0.00
2012-2-8,33.9,27.5,21.4,19.3,16.4,11.8,70,60,51,29.47,29.23,2,0,4,0.00
2012-2-9,55.8,33.0,22.2,23.5,15.6,9.3,74,49,27,29.32,29.23,4,1,9,0.00
2012-2-10,39.4,29.7,19.6,22.4,15.5,11.0,73,55,39,29.26,29.06,4,1,7,0.00
2012-2-11,32.3,23.2,13.3,26.8,15.9,2.6,83,71,57,29.09,28.94,6,2,13,0.00
2012-2-12,28.0,21.5,14.1,18.0,11.2,5.4,73,61,50,29.12,28.97,6,2,13,0.00
2012-2-13,50.2,33.4,24.6,22.7,13.1,6.3,55,42,31,29.15,29.06,5,2,10,0.00
2012-2-14,39.7,34.7,30.6,26.6,18.3,7.0,72,51,34,29.18,29.09,4,1,7,0.00
2012-2-15,39.1,34.1,24.4,31.8,25.3,19.8,84,70,54,29.44,29.18,3,0,6,0.00
2012-2-16,41.2,34.6,23.5,36.8,29.9,19.2,89,82,65,29.41,29.06,4,1,10,0.00
2012-2-17,52.0,38.8,29.4,36.5,22.0,14.7,83,52,34,29.23,29.12,6,2,11,0.00
2012-2-18,49.5,33.8,24.4,28.9,21.8,13.3,75,60,41,29.29,29.00,6,2,10,0.00
2012-2-19,40.8,31.5,25.9,25.0,18.7,13.4,73,57,41,29.35,29.23,5,2,10,0.00
2012-2-20,51.8,34.0,24.8,23.3,16.2,9.7,64,48,29,29.53,29.29,4,2,8,0.00
2012-2-23,45.3,35.5,31.1,24.2,21.9,19.8,72,57,42,28.91,28.85,2,0,4,0.00
2012-2-24,44.8,37.2,31.3,38.6,30.5,21.5,91,77,52,28.88,28.44,7,-7,12,0.00
2012-2-25,37.5,31.5,25.6,25.1,17.9,10.3,76,55,41,29.32,28.53,8,4,15,0.00
2012-2-26,41.3,28.9,21.0,18.2,13.5,9.5,68,50,39,29.59,29.29,9,-110,13,0.00
2012-2-27,60.5,37.8,21.0,28.9,19.1,14.2,79,49,28,29.47,29.18,8,-354,15,0.00
2012-2-28,42.5,33.2,26.2,20.5,17.2,14.2,65,51,40,29.65,29.44,7,2,13,0.00
2012-2-29,37.2,33.6,28.5,35.2,26.8,19.1,92,76,56,29.50,28.79,4,1,8,0.00
2012-3-1,44.2,39.3,37.0,39.8,32.6,26.8,98,78,54,29.09,28.73,4,2,10,0.00
2012-3-2,57.3,42.4,34.5,37.3,30.1,26.4,87,64,36,29.15,28.67,6,2,16,0.00
2012-3-3,58.8,44.1,33.3,40.7,25.1,12.6,82,50,26,28.85,28.53,6,4,15,0.00
2012-3-4,40.7,31.3,21.7,24.6,16.7,11.6,67,54,42,29.00,28.82,6,2,12,0.00
2012-3-5,40.9,23.7,14.8,16.1,7.9,1.9,67,49,32,29.56,29.00,6,2,13,0.00
2012-3-6,49.6,31.6,12.9,21.4,11.5,2.8,77,44,29,29.74,29.47,5,2,8,0.00
2012-3-7,72.1,52.7,38.7,31.5,23.1,15.8,42,32,22,29.50,29.26,5,2,12,0.00
2012-3-8,61.5,54.1,37.4,50.5,36.4,26.6,84,54,35,29.26,28.94,7,3,17,0.00
2012-3-9,47.1,32.2,23.9,32.0,19.6,9.6,81,58,39,29.47,29.21,8,2,16,0.00
2012-3-10,45.7,31.1,19.0,21.0,11.9,7.7,62,44,32,29.74,29.47,6,3,12,0.00
2012-3-11,76.1,50.4,34.6,33.4,20.8,12.7,49,33,19,29.53,29.41,4,2,10,0.00
2012-3-12,67.1,46.4,35.1,33.8,26.4,20.5,65,48,26,29.47,29.23,3,1,6,0.00
2012-3-14,59.1,45.8,39.9,23.9,22.5,20.7,49,40,24,29.38,29.32,1,0,2,0.00
2012-3-15,76.6,53.1,36.9,44.1,33.4,22.5,69,50,31,29.35,29.23,3,1,8,0.00
2012-3-16,76.4,60.1,47.3,55.0,48.6,38.2,93,68,43,29.38,29.18,6,1,10,0.00
2012-3-17,86.3,62.9,49.3,55.7,46.6,39.4,96,62,26,29.50,29.35,3,1,6,0.00
2012-3-20,57.9,56.1,54.8,49.2,48.5,47.8,80,76,69,29.44,29.41,0,0,1,0.00
2012-3-21,89.7,65.2,49.5,57.0,48.5,41.6,98,62,23,29.50,29.35,4,1,7,0.00
2012-3-22,91.8,67.2,52.7,53.5,48.9,45.1,86,57,25,29.44,29.29,3,1,6,0.00
2012-3-23,80.2,61.1,49.5,56.8,44.7,33.6,94,60,30,29.35,29.23,4,-20,7,0.00
2012-3-24,61.9,56.0,51.2,42.5,37.5,32.8,72,50,37,29.23,29.06,6,-227,12,0.00
2012-3-25,55.1,50.3,46.8,49.0,44.6,40.2,94,81,69,29.09,28.97,4,-265,6,0.00
2012-3-26,48.9,38.8,28.6,46.5,19.4,6.3,94,47,30,29.44,29.00,8,4,17,0.00
2012-3-27,60.8,37.1,22.7,24.0,12.2,4.4,43,35,24,29.56,29.12,4,1,7,0.00
2012-3-28,80.4,57.1,37.1,44.4,30.8,15.6,77,40,23,29.15,28.70,7,3,14,0.00
2012-3-29,44.9,39.1,35.8,37.1,31.2,21.9,87,74,56,29.26,28.91,6,3,13,0.00
2012-3-30,59.9,41.9,29.8,29.3,22.4,16.6,75,47,28,29.32,29.06,4,2,6,0.00
2012-3-31,41.5,38.1,34.0,36.8,33.6,27.1,91,84,76,29.12,29.00,4,2,8,0.00
2012-4-1,42.6,38.1,35.2,37.2,32.9,29.7,96,82,67,29.12,28.88,3,0,8,0.00
2012-4-2,60.3,43.7,33.8,36.4,26.6,14.8,97,58,25,29.15,28.94,7,3,12,0.00
2012-4-3,66.9,47.4,32.7,28.0,20.4,15.4,50,35,23,29.21,28.97,5,2,8,0.00
2012-4-4,65.1,47.0,34.0,32.6,23.3,15.9,61,40,27,29.00,28.88,8,2,17,0.00
2012-4-5,53.2,40.0,29.2,26.9,20.6,14.4,59,46,35,29.21,29.00,6,2,11,0.00
2012-4-6,59.2,42.0,29.3,27.1,19.7,10.5,66,43,26,29.32,29.18,7,2,12,0.00
2012-4-7,64.4,47.0,34.3,25.2,18.4,13.2,47,33,20,29.41,29.23,7,3,14,0.00
2012-4-8,72.4,51.6,38.1,32.3,21.6,11.6,47,32,19,29.26,28.94,8,3,14,0.00
2012-4-9,61.9,48.2,39.4,27.3,20.8,16.7,43,34,25,28.97,28.85,8,4,17,0.00
2012-4-10,56.4,44.4,36.0,28.0,22.4,16.0,62,42,29,29.03,28.82,6,2,12,0.00
2012-4-11,54.7,42.3,36.1,36.5,29.4,24.1,77,61,38,29.23,29.00,7,3,10,0.00
2012-4-12,61.4,46.1,33.2,33.3,27.5,18.7,77,50,31,29.38,29.21,6,2,12,0.00
2012-4-13,73.8,48.9,31.9,33.7,25.8,17.7,79,45,22,29.47,29.35,5,1,10,0.00
2012-4-14,74.5,54.2,36.7,40.1,29.6,19.2,62,42,22,29.35,29.12,4,1,9,0.00
2012-4-15,71.4,60.8,53.6,57.3,50.4,41.1,83,69,55,29.15,29.06,3,1,6,0.00
2012-4-16,93.6,70.0,49.6,57.1,48.9,40.6,97,56,19,29.15,28.94,6,2,12,0.00
2012-4-17,69.3,54.1,37.0,40.4,31.3,22.4,57,42,25,29.50,29.15,7,2,14,0.00
2012-4-18,63.2,45.1,30.2,32.2,25.5,19.6,75,49,28,29.53,29.23,3,1,6,0.00
2012-4-19,81.8,57.3,34.7,42.2,35.1,21.3,72,47,23,29.26,29.09,3,1,6,0.00
2012-4-20,87.1,66.7,50.2,44.5,39.7,32.5,73,42,19,29.15,28.88,5,2,10,0.00
2012-4-21,63.0,48.9,38.5,43.8,40.2,35.8,91,74,40,29.12,28.88,3,1,6,0.00
2012-4-22,41.7,39.2,35.4,38.0,36.0,33.9,94,88,78,29.12,28.88,5,2,10,0.00
2012-4-23,41.4,36.3,33.1,37.1,34.0,32.7,100,92,81,28.88,28.47,5,2,10,0.00
2012-4-24,53.4,40.6,34.3,38.4,32.5,26.4,94,75,38,28.82,28.41,5,2,11,0.00
2012-4-25,57.2,44.3,33.3,32.8,28.8,25.1,86,57,35,29.09,28.82,5,1,8,0.00
2012-4-26,74.1,48.1,32.3,43.4,34.3,25.7,90,63,30,29.09,28.70,4,1,12,0.00
2012-4-27,48.0,38.7,29.6,35.0,25.4,17.8,87,60,40,29.38,28.94,5,2,12,0.00
2012-4-28,64.6,46.2,27.0,30.3,23.9,18.2,73,44,26,29.47,29.29,4,1,7,0.00
2012-4-29,66.6,46.2,27.5,27.6,22.2,12.4,76,43,23,29.47,29.35,6,2,14,0.00
2012-4-30,67.0,57.1,32.7,41.9,29.0,19.2,76,38,23,29.47,29.15,4,1,10,0.00
2012-5-1,67.3,55.9,48.7,59.3,48.3,42.6,93,77,58,29.26,29.06,3,1,6,0.00
2012-5-2,86.2,63.8,50.2,59.2,50.9,42.8,92,66,35,29.26,29.12,4,1,6,0.00
2012-5-3,91.8,72.0,57.0,66.6,59.4,54.1,99,69,38,29.29,29.09,4,1,8,0.00
2012-5-4,90.6,69.9,60.5,67.9,58.9,52.9,99,72,33,29.18,29.09,3,-8,7,0.00
2012-5-5,74.8,59.0,45.2,53.4,41.5,32.3,72,54,34,29.29,29.15,5,2,8,0.00
2012-5-6,83.2,57.9,39.2,46.3,36.0,24.2,89,51,22,29.32,29.23,4,1,8,0.00
2012-5-7,67.6,56.4,48.9,56.2,45.1,33.2,96,68,40,29.26,29.00,3,1,7,0.00
2012-5-8,65.5,58.6,54.1,60.5,56.3,53.1,98,92,79,29.06,28.91,3,1,7,0.00
2012-5-9,75.4,61.2,50.7,59.0,48.6,36.5,100,69,31,29.00,28.85,3,0,6,0.00
2012-5-10,60.0,53.0,47.1,47.2,34.3,25.0,82,52,30,29.09,28.82,5,2,11,0.00
2012-5-11,74.6,58.0,40.5,35.6,30.5,26.3,60,37,22,29.32,29.06,5,2,9,0.00
2012-5-12,91.4,66.1,44.9,46.5,37.7,30.9,72,40,18,29.41,29.29,3,1,9,0.00
2012-6-27,75.0,69.4,63.5,46.4,43.1,40.8,53,39,33,29.09,29.03,4,1,6,0.00
2012-6-28,95.4,77.0,61.2,58.1,51.7,46.1,68,45,23,29.06,28.88,2,0,4,0.00
2012-6-29,100.2,82.3,70.7,64.3,53.1,41.6,72,43,18,28.97,28.85,4,1,6,0.00
2012-6-30,88.7,78.8,75.0,51.6,47.9,45.7,44,34,26,29.03,28.94,2,0,4,0.00
2012-7-1,94.8,77.7,64.8,65.1,50.7,39.0,88,45,17,29.12,29.00,6,1,8,0.00
2012-7-2,92.6,76.2,62.1,58.0,50.0,44.7,77,44,21,29.23,29.12,4,1,8,0.00
2012-7-3,96.5,77.0,63.9,64.4,55.6,47.4,75,52,20,29.18,29.00,2,0,6,0.00
2012-7-4,101.4,82.9,67.6,67.0,61.2,56.3,80,52,25,29.06,28.94,4,1,7,0.00
2012-7-5,95.7,79.6,65.7,68.0,54.8,44.9,69,45,27,29.15,29.00,4,1,8,0.00
2012-7-6,101.9,81.2,63.9,63.6,57.7,49.4,77,49,25,29.18,29.06,4,-130,7,0.00
2012-7-7,84.0,75.2,70.0,70.1,64.4,58.5,87,70,53,29.21,29.06,3,-29,6,0.00
2012-7-8,92.8,75.6,65.7,64.7,57.2,48.8,92,57,28,29.15,29.09,3,1,6,0.00
2012-7-9,90.1,73.4,61.5,60.9,49.3,40.9,81,47,21,29.23,29.12,3,1,8,0.00
2012-7-10,91.9,73.1,58.6,54.6,47.9,41.3,73,44,25,29.32,29.18,3,1,6,0.00
2012-7-11,97.5,74.3,56.8,55.3,45.4,37.5,80,42,16,29.38,29.29,3,1,6,0.00
2012-7-12,102.1,79.5,63.0,58.6,51.5,43.4,65,41,20,29.38,29.29,3,1,6,0.00
2012-7-13,102.0,79.1,68.9,62.8,56.5,47.1,72,49,17,29.41,29.32,4,1,9,0.00
2012-7-14,97.1,81.5,69.4,61.0,56.1,48.1,69,46,21,29.41,29.23,3,1,6,0.00
2012-7-15,82.6,76.0,71.1,72.9,64.4,59.2,86,68,47,29.32,29.12,3,0,5,0.00
2012-7-16,93.7,79.2,68.4,68.2,59.5,49.6,91,57,27,29.15,29.06,4,1,8,0.00
2012-7-17,102.4,83.7,73.2,60.2,56.8,52.5,63,42,25,29.09,28.94,4,-4,11,0.00
2012-7-18,85.8,78.2,66.9,66.6,59.2,51.8,71,53,36,29.15,29.00,4,1,6,0.00
2012-7-19,86.9,71.0,60.6,62.2,55.0,47.0,86,60,32,29.23,29.12,3,1,6,0.00
2012-7-20,70.5,64.9,59.7,63.2,57.3,49.4,94,77,60,29.29,29.15,2,0,4,0.00
2012-7-21,88.3,71.7,58.2,67.2,56.4,49.3,100,65,31,29.32,29.21,2,0,5,0.00
2012-7-22,90.4,76.9,65.2,68.9,58.1,52.5,92,56,29,29.32,29.23,3,1,6,0.00
2012-7-23,97.9,86.4,70.2,71.9,61.5,55.8,97,47,28,29.26,28.91,4,1,7,0.00
2012-7-24,84.2,75.9,64.8,64.3,56.1,46.3,70,51,35,29.09,28.88,5,1,8,0.00
2012-7-25,93.7,74.1,61.2,57.1,50.6,47.2,72,47,23,29.21,28.94,4,1,6,0.00
2012-7-26,84.2,71.8,64.8,69.9,64.8,51.9,96,80,50,29.00,28.82,4,0,6,0.00
2012-7-27,80.8,73.4,68.4,71.0,65.1,59.5,97,77,51,29.12,28.88,0,0,1,0.00
2012-7-28,75.9,75.9,75.9,63.3,63.3,63.3,65,65,65,29.15,29.15,0,0,2,0.00
2012-7-29,81.9,69.2,62.8,51.7,50.3,47.3,67,55,30,29.23,29.23,2,1,4,0.00
2012-7-30,88.7,67.8,62.0,56.2,53.2,51.0,77,63,28,29.29,29.21,1,0,2,0.00
2012-8-1,65.7,65.7,65.7,63.7,63.7,63.7,93,93,93,29.03,29.03,1,1,2,0.00
2012-8-5,83.4,74.3,71.6,67.7,65.5,64.4,78,75,67,29.21,29.12,1,0,3,0.00
2012-8-6,79.2,67.8,60.6,64.5,56.2,49.0,82,68,35,29.32,29.21,0,0,0,0.00
2012-8-7,94.8,75.5,59.0,60.5,53.8,42.2,92,56,18,29.23,29.15,1,0,2,0.00
2012-8-8,98.3,78.4,64.0,60.8,56.5,52.1,77,52,23,29.18,29.12,0,0,1,0.00
2012-8-9,94.5,82.8,71.6,64.6,62.6,56.2,77,52,35,29.12,29.06,0,0,0,0.00
2012-8-10,78.4,71.0,65.7,68.5,65.3,62.4,97,83,62,29.03,28.88,0,0,1,0.00
2012-8-11,88.7,72.2,64.9,70.8,61.9,50.1,100,76,31,29.09,28.91,0,0,1,0.00
2012-8-12,87.7,71.0,62.1,59.3,56.0,53.1,81,61,35,29.15,29.06,0,0,1,0.00
2012-8-15,90.4,76.0,64.0,65.2,59.7,52.9,96,62,31,29.18,29.06,0,0,0,0.00
2012-8-16,80.4,72.9,67.1,57.7,51.4,46.5,69,49,31,29.09,29.00,0,0,0,0.00
2012-8-17,75.9,71.0,63.0,60.9,55.8,48.3,70,59,42,29.09,28.94,4,0,6,0.00
2012-8-18,79.3,61.6,54.0,52.5,49.8,42.7,84,68,32,29.18,29.09,3,0,4,0.00
2012-8-19,86.3,72.5,62.4,54.0,46.2,41.1,64,41,25,29.21,29.06,3,1,5,0.00
2012-8-20,85.6,67.4,57.9,59.5,53.7,48.4,83,63,34,29.15,29.06,0,0,1,0.00
2012-8-21,89.4,66.9,52.6,61.9,49.6,41.3,97,60,27,29.32,29.15,0,0,1,0.00
2012-8-22,92.6,69.3,57.2,55.1,51.2,45.4,81,58,23,29.35,29.29,0,0,1,0.00
2012-8-24,84.2,72.5,63.4,53.6,52.1,49.2,65,50,30,29.38,29.32,0,0,1,0.00
2012-8-25,98.6,77.4,61.5,61.0,51.1,42.3,83,45,22,29.47,29.35,3,-11,6,0.00
2012-8-26,94.5,72.2,60.7,61.6,55.1,51.8,84,58,28,29.47,29.35,0,0,1,0.00
2012-8-27,84.9,70.7,68.9,67.4,63.8,59.1,89,79,45,29.32,29.12,0,-32,1,0.00
2012-8-28,83.5,70.4,64.2,67.6,59.3,48.5,96,71,40,29.21,29.06,5,1,6,0.00
2012-8-29,83.8,64.3,52.9,51.1,45.9,40.9,81,55,29,29.26,29.18,3,-39,6,0.00
2012-8-30,91.9,63.7,53.4,53.8,47.5,42.6,84,61,22,29.29,29.21,2,-78,6,0.00
2012-8-31,99.3,68.9,62.2,59.5,48.9,46.9,60,51,19,29.21,29.15,3,-59,4,0.00
2012-9-1,93.9,71.5,61.3,59.8,50.9,41.3,65,50,25,29.32,29.21,3,0,5,0.00
2012-9-2,99.4,72.7,57.4,58.6,48.0,39.3,83,48,16,29.29,29.21,5,1,8,0.00
2012-9-3,79.7,69.7,59.0,65.8,59.2,47.7,81,70,54,29.29,29.18,3,1,6,0.00
2012-9-4,86.0,75.2,69.1,70.5,66.3,63.4,96,75,50,29.21,28.94,3,1,5,0.00
2012-9-5,85.1,73.7,65.1,64.5,57.4,53.3,84,59,40,29.12,29.03,3,0,6,0.00
2012-9-6,93.9,73.9,65.6,66.4,62.5,55.9,91,71,32,29.12,29.00,3,-10,4,0.00
2012-9-7,90.5,74.3,65.5,68.8,62.1,52.8,99,71,30,29.12,28.94,3,-23,4,0.00
2012-9-8,75.7,68.0,55.9,66.1,60.3,52.8,98,77,58,29.00,28.73,3,-24,5,0.00
2012-9-9,78.1,57.3,50.9,57.9,49.9,42.6,99,79,32,29.18,28.97,4,-99,6,0.00
2012-9-10,72.1,55.7,49.2,47.6,41.2,32.8,78,60,27,29.35,29.15,5,-114,8,0.00
2012-9-11,85.8,57.5,48.9,48.9,42.9,37.5,82,61,22,29.47,29.35,2,-70,3,0.00
2012-9-12,91.0,70.1,53.2,53.1,47.3,40.5,87,50,21,29.53,29.41,0,-26,2,0.00
2012-9-13,95.0,67.9,55.4,57.1,53.0,48.1,86,63,22,29.53,29.41,0,-11,1,0.00
2012-9-14,90.1,65.2,55.8,59.3,55.8,49.2,88,74,28,29.44,29.23,7,-60,9,0.00
2012-9-15,69.3,55.9,51.6,51.8,48.2,40.9,93,77,38,29.41,29.32,5,-87,6,0.00
2012-9-16,75.8,58.7,50.5,51.6,47.8,41.7,84,69,34,29.35,29.23,3,-90,4,0.00
2012-9-17,83.5,63.0,56.5,52.2,46.6,39.7,78,58,24,29.26,29.09,3,-105,4,0.00
2012-9-18,70.3,61.7,53.1,67.6,54.4,44.0,96,77,58,29.12,28.67,6,-47,10,0.00
2012-9-19,72.2,53.8,43.9,47.5,40.7,33.1,97,66,31,29.38,29.00,4,-71,6,0.00
2012-9-20,77.9,54.6,42.3,45.6,41.3,39.2,94,66,28,29.35,29.18,3,-72,6,0.00
2012-9-21,71.1,62.6,58.5,55.5,49.9,44.1,83,64,50,29.18,29.09,3,-83,5,0.00
2012-9-22,75.7,60.5,49.7,59.4,51.4,40.9,92,73,42,29.15,28.88,4,-78,8,0.00
2012-9-23,68.8,52.0,41.2,48.7,36.9,27.8,98,61,30,29.35,29.12,4,1,8,0.00
2012-9-24,68.4,52.8,42.4,40.1,35.1,31.1,75,53,33,29.35,29.18,3,1,6,0.00
2012-9-25,81.3,60.3,45.1,48.3,37.9,33.8,74,47,22,29.23,29.15,4,1,6,0.00
2012-9-26,69.0,61.8,56.5,61.1,55.3,48.4,100,80,64,29.32,29.12,3,1,6,0.00
2012-9-27,75.1,56.4,45.9,54.7,42.9,36.7,94,63,32,29.44,29.29,3,1,8,0.00
2012-9-28,55.0,52.7,50.5,52.5,48.4,42.2,94,86,73,29.35,29.23,3,0,6,0.00
2012-9-29,61.3,51.4,45.7,49.9,44.5,40.6,94,78,52,29.23,29.12,3,-60,4,0.00
2012-9-30,53.6,48.9,45.0,52.2,46.8,41.3,98,92,81,29.12,29.03,2,-64,5,0.00
2012-10-1,71.4,54.5,49.5,50.1,47.5,42.9,96,79,38,29.15,28.97,3,-98,5,0.00
2012-10-2,69.3,58.5,51.8,60.3,54.4,48.0,94,86,68,29.15,29.06,2,-72,3,0.00
2012-10-3,75.7,64.9,62.0,64.4,61.1,58.8,97,88,66,29.32,29.12,1,-92,2,0.00
2012-10-4,74.8,62.7,56.8,63.9,56.5,46.4,99,82,38,29.35,29.23,2,-59,3,0.00
2012-10-5,82.8,61.5,54.1,56.8,52.2,49.7,91,74,35,29.26,29.06,3,-124,4,0.00
2012-10-6,63.0,52.3,41.9,55.3,43.2,28.8,98,73,39,29.21,28.97,4,-79,8,0.00
2012-10-7,54.4,44.0,38.5,41.9,37.2,31.5,91,78,49,29.26,29.18,3,-101,5,0.00
2012-10-8,57.0,41.2,35.6,43.3,35.4,32.1,99,82,46,29.41,29.29,2,-81,3,0.00
2012-10-9,72.3,46.2,34.3,42.4,35.2,31.0,94,69,29,29.44,29.18,2,-80,5,0.00
2012-10-10,65.8,47.2,40.6,47.4,37.6,30.5,93,70,37,29.18,29.00,3,-36,7,0.00
2012-10-11,65.3,46.7,38.7,34.5,27.6,25.1,62,48,25,29.35,29.15,4,-90,7,0.00
2012-10-12,55.2,43.0,29.5,39.0,26.9,16.8,84,55,32,29.62,29.18,5,-9,10,0.00
2012-10-13,61.3,41.5,29.5,32.9,25.7,21.3,81,56,26,29.62,29.21,4,-51,8,0.00
2012-10-14,78.8,60.0,49.6,53.6,43.2,32.3,73,55,40,29.21,28.91,4,-79,9,0.00
2012-10-15,70.2,58.4,48.6,52.1,43.9,31.3,67,59,37,29.00,28.76,3,-85,6,0.00
2012-10-16,67.5,45.9,36.1,35.6,30.0,26.3,73,54,30,29.09,28.97,4,-68,6,0.00
2012-10-17,76.1,47.7,35.8,40.5,34.0,28.4,84,64,23,29.12,29.00,2,-88,6,0.00
2012-10-18,74.8,55.7,44.2,44.4,37.6,33.4,81,53,25,29.06,28.97,6,-45,10,0.00
2012-10-19,69.8,54.6,48.6,59.7,49.5,44.0,100,85,56,29.09,28.79,4,-64,10,0.00
2012-10-20,66.2,53.0,45.5,52.8,41.3,31.9,99,69,34,29.00,28.82,3,-5,6,0.00
2012-10-21,66.9,51.0,46.5,42.9,36.7,29.6,76,60,27,29.26,28.94,3,-48,8,0.00
2012-10-22,75.9,49.6,39.9,46.5,37.8,35.6,87,66,27,29.32,29.23,2,-62,5,0.00
2012-10-23,53.2,50.3,44.4,53.2,47.6,36.8,100,91,74,29.29,29.21,1,-54,3,0.00
2012-10-24,60.6,55.9,52.0,59.5,55.2,52.0,100,98,91,29.32,29.23,0,0,2,0.00
2012-10-25,89.4,64.7,55.0,66.1,55.0,49.9,100,76,29,29.35,29.23,2,1,6,0.00
2012-10-26,86.4,64.3,52.5,54.6,51.2,44.8,80,65,30,29.32,29.18,4,2,7,0.00
2012-10-27,57.0,52.2,48.0,52.9,48.0,44.3,94,86,75,29.32,29.12,6,0,12,0.00
2012-10-28,47.8,46.3,45.7,46.5,45.6,44.5,100,97,93,29.23,29.03,5,1,7,0.00
2012-10-29,60.0,48.8,46.4,58.0,48.7,46.4,100,100,98,29.92,28.20,10,-12,20,3.29
2012-10-30,54.5,49.6,42.7,54.5,45.4,36.5,100,86,61,28.61,28.17,8,-26,17,0.04
2012-10-31,45.7,42.5,41.4,37.4,35.7,30.7,84,77,58,28.70,28.59,2,-12,6,0.00
2012-11-1,48.9,44.3,42.1,41.8,38.9,35.5,93,82,61,28.82,28.64,4,1,6,0.08
2012-11-2,42.8,39.6,36.9,35.5,31.5,25.7,82,73,54,29.03,28.79,5,2,10,0.00
2012-11-3,46.4,38.5,36.5,31.7,28.6,25.8,78,68,47,29.23,29.00,6,3,13,0.05
2012-11-4,44.3,36.4,33.8,27.0,23.5,19.3,73,60,44,29.26,29.18,6,2,9,0.00
2012-11-5,39.7,35.4,32.9,27.2,22.0,15.7,75,58,47,29.38,29.21,4,2,7,0.00
2012-11-6,54.9,35.7,24.4,25.4,18.4,15.2,72,49,29,29.38,29.21,4,1,6,0.00
2012-11-7,42.1,30.9,20.3,28.9,19.0,15.0,81,62,39,29.29,29.18,5,1,7,0.00
2012-11-8,54.0,37.6,27.7,25.7,18.5,14.2,70,46,29,29.29,29.18,7,2,10,0.00
2012-11-9,49.5,39.2,26.1,35.7,26.9,15.3,77,61,43,29.38,29.23,3,0,6,0.00
2012-11-10,54.9,47.5,41.5,44.0,38.4,35.3,89,71,54,29.47,29.35,3,0,5,0.00
2012-11-11,77.7,58.8,45.3,41.0,34.6,30.8,68,42,24,29.53,29.38,4,1,6,0.00
2012-11-12,66.9,59.0,42.1,46.9,40.8,34.3,87,52,42,29.44,29.15,8,2,12,0.16
2012-11-13,42.3,37.4,34.7,38.6,26.3,18.6,89,65,50,29.68,29.35,5,1,8,0.04
2012-11-14,41.9,35.1,25.7,23.5,20.5,18.2,78,55,46,29.77,29.62,3,1,6,0.00
2012-11-15,60.9,34.7,24.6,34.5,22.6,18.2,89,64,27,29.65,29.50,3,0,5,0.00
2012-11-16,59.1,35.4,24.3,33.9,24.1,19.0,86,65,35,29.71,29.47,4,0,6,0.00
2012-11-17,63.2,38.8,27.1,37.7,27.5,21.4,94,67,32,29.80,29.65,3,0,5,0.00
2012-11-18,64.5,38.0,25.8,37.3,27.2,20.8,90,68,31,29.83,29.65,3,0,4,0.00
2012-11-19,61.6,36.9,23.7,36.3,25.8,19.6,93,66,34,29.71,29.41,4,0,6,0.00
2012-11-20,52.9,39.1,30.6,35.0,30.5,25.3,89,72,48,29.41,29.29,2,0,4,0.00
2012-11-21,68.5,40.5,29.3,40.4,29.1,22.7,96,67,29,29.44,29.32,3,0,4,0.00
2012-11-22,73.9,44.9,32.4,35.5,27.8,20.3,84,57,21,29.41,29.18,3,1,8,0.00
2012-11-23,56.5,44.9,32.2,37.7,27.7,19.6,72,51,37,29.18,28.82,5,2,10,0.00
2012-11-24,37.4,34.0,31.6,22.9,16.5,13.9,61,48,41,29.06,28.88,7,3,12,0.00
2012-11-25,37.3,33.4,31.5,24.4,17.9,13.4,68,51,43,29.09,28.97,5,1,10,0.00
2012-11-26,43.3,36.1,32.4,23.8,19.3,17.1,67,50,39,29.41,29.03,4,1,9,0.00
2012-11-27,52.2,35.9,31.8,23.4,16.3,12.9,52,45,30,29.44,29.35,4,1,8,0.00
2012-11-28,37.9,33.7,29.7,21.3,16.4,12.9,59,48,41,29.44,29.29,3,1,7,0.00
2012-11-29,56.2,37.4,26.6,27.1,17.3,11.3,66,44,28,29.44,29.35,4,1,8,0.00
2012-11-30,36.3,29.7,27.5,24.7,20.7,16.1,81,67,44,29.59,29.41,4,1,7,0.00
2012-12-1,53.1,38.4,28.6,36.7,30.3,24.1,88,73,47,29.56,29.41,4,1,9,0.00
2012-12-2,50.7,46.4,42.1,48.0,39.5,31.3,93,77,61,29.41,29.12,5,2,10,0.04
2012-12-3,66.3,48.9,39.9,49.7,40.0,33.5,94,73,39,29.44,29.26,4,1,6,0.00
2012-12-4,73.7,58.1,46.2,55.3,47.3,40.1,98,72,32,29.29,29.06,5,1,11,0.67
2012-12-5,46.2,36.5,29.5,45.8,26.6,15.5,99,67,50,29.50,29.12,7,2,13,0.00
2012-12-6,47.5,33.6,23.5,22.5,16.2,12.7,66,48,36,29.56,29.26,4,1,10,0.00
2012-12-7,38.8,37.1,34.9,36.9,27.6,15.0,94,71,42,29.23,29.12,5,1,9,0.17
2012-12-8,51.6,44.0,37.6,45.7,40.1,30.1,100,87,73,29.32,28.94,6,1,11,0.12
2012-12-9,43.0,37.4,33.6,42.0,29.8,25.4,98,74,59,29.44,29.00,5,1,7,0.04
2012-12-10,54.1,44.4,36.3,49.2,42.1,34.3,99,92,83,29.00,28.73,4,1,9,0.29
2012-12-11,39.5,33.0,26.6,34.3,28.7,23.3,94,84,58,29.35,28.91,4,1,6,0.00
2012-12-12,50.4,33.6,24.5,27.7,22.5,16.4,92,66,37,29.59,29.35,4,1,7,0.00
2012-12-13,53.9,34.6,27.0,25.5,20.6,15.1,79,58,29,29.62,29.38,4,1,6,0.00
2012-12-14,52.3,37.3,25.5,29.2,22.5,16.4,70,55,39,29.44,29.32,4,1,8,0.00
2012-12-15,47.2,38.8,34.2,32.6,27.6,25.1,80,65,45,29.47,29.21,4,1,8,0.00
2012-12-16,51.7,44.8,39.7,41.9,33.3,25.9,90,65,51,29.21,28.94,5,2,10,0.04
2012-12-17,50.6,46.5,43.2,45.4,43.4,41.6,99,89,79,28.97,28.76,4,1,8,0.50
2012-12-18,44.8,41.5,38.5,44.8,39.0,27.4,100,92,64,28.88,28.64,5,1,13,0.25
2012-12-19,45.6,37.4,31.5,33.6,26.8,23.1,84,66,47,29.38,28.88,5,2,12,0.00
2012-12-20,38.7,32.8,23.0,32.7,22.3,17.1,90,66,42,29.38,28.67,6,2,13,0.00
2012-12-21,40.4,35.6,32.8,36.1,33.4,28.3,100,92,80,28.67,28.35,6,1,13,0.66
2012-12-22,33.8,30.4,27.1,28.8,20.7,16.5,90,65,51,29.06,28.50,10,5,20,0.00
2012-12-23,48.0,34.6,29.5,25.0,20.4,14.7,74,56,34,29.15,28.97,4,1,8,0.00
2012-12-24,40.5,31.5,28.4,24.6,17.3,13.7,79,54,40,29.23,29.06,6,1,13,0.00
2012-12-25,39.5,30.0,26.1,26.9,23.0,17.9,87,74,50,29.50,29.06,5,1,10,0.00
2012-12-26,26.3,23.8,21.7,24.1,18.4,14.3,94,78,66,29.53,28.88,6,2,11,0.00
2012-12-27,29.0,25.0,23.5,25.1,20.9,17.2,93,83,68,29.15,28.82,7,2,16,0.00
2012-12-28,34.3,27.7,22.8,22.9,20.5,17.1,81,72,53,29.29,29.12,4,1,9,0.00
2012-12-29,32.7,27.8,25.2,26.7,22.7,20.5,88,79,73,29.21,28.82,3,0,6,0.00
2012-12-30,33.5,25.4,22.2,20.5,15.3,10.4,80,63,46,29.38,28.94,6,2,13,0.00
2012-12-31,43.4,31.3,23.0,24.1,17.6,13.7,69,56,39,29.35,29.00,4,1,10,0.00
2013-1-1,33.8,23.8,6.4,24.3,12.1,-3.5,69,58,48,29.23,29.00,6,2,12,0.13